createdAt,value
2018-11-05T00:01:35.146Z,33.57
2018-11-05T00:04:03.505Z,31.10
2018-11-05T00:06:31.794Z,36.60
2018-11-05T00:09:00.126Z,35.90
2018-11-05T00:11:28.424Z,35.87
2018-11-05T00:13:56.774Z,31.87
2018-11-05T00:16:25.076Z,30.97
2018-11-05T00:18:53.373Z,36.50
2018-11-05T00:21:21.792Z,33.57
2018-11-05T00:23:50.191Z,30.00
2018-11-05T00:26:18.482Z,30.23
2018-11-05T00:28:46.819Z,39.07
2018-11-05T00:31:15.165Z,34.90
2018-11-05T00:33:43.502Z,31.73
2018-11-05T00:36:11.890Z,33.93
2018-11-05T00:38:40.252Z,35.27
2018-11-05T00:41:08.582Z,36.60
2018-11-05T00:43:36.866Z,36.43
2018-11-05T00:46:05.317Z,33.83
2018-11-05T00:48:33.595Z,33.60
2018-11-05T00:51:01.913Z,36.80
2018-11-05T00:53:30.246Z,31.10
2018-11-05T00:55:58.513Z,37.10
2018-11-05T00:58:26.815Z,35.50
2018-11-05T01:00:55.253Z,36.60
2018-11-05T01:03:23.596Z,34.97
2018-11-05T01:05:51.885Z,33.70
2018-11-05T01:08:20.229Z,34.83
2018-11-05T01:10:48.569Z,37.43
2018-11-05T01:13:16.899Z,34.47
2018-11-05T01:15:45.238Z,35.50
2018-11-05T01:18:13.549Z,37.67
2018-11-05T01:20:41.853Z,34.93
2018-11-05T01:23:10.205Z,38.37
2018-11-05T01:25:38.485Z,32.40
2018-11-05T01:28:06.872Z,36.97
2018-11-05T01:30:35.196Z,33.37
2018-11-05T01:33:03.521Z,40.73
2018-11-05T01:35:31.900Z,34.50
2018-11-05T01:38:00.234Z,38.40
2018-11-05T01:40:28.527Z,34.97
2018-11-05T01:42:56.875Z,40.00
2018-11-05T01:45:25.295Z,36.17
2018-11-05T01:47:53.644Z,39.97
2018-11-05T01:50:23.041Z,36.80
2018-11-05T01:52:51.408Z,38.40
2018-11-05T01:55:19.967Z,39.00
2018-11-05T01:57:48.337Z,42.80
2018-11-05T02:00:17.429Z,37.13
2018-11-05T02:02:46.670Z,36.40
2018-11-05T02:05:14.990Z,39.40
2018-11-05T02:07:44.502Z,37.37
2018-11-05T02:10:14.392Z,38.40
2018-11-05T02:12:42.752Z,33.70
2018-11-05T02:15:11.657Z,35.70
2018-11-05T02:17:41.154Z,39.87
2018-11-05T02:20:09.541Z,36.37
2018-11-05T02:22:38.302Z,35.33
2018-11-05T02:25:07.225Z,39.53
2018-11-05T02:27:35.522Z,32.67
2018-11-05T02:30:04.321Z,33.57
2018-11-05T02:32:32.677Z,37.70
2018-11-05T02:35:01.043Z,34.37
2018-11-05T02:37:29.483Z,35.60
2018-11-05T02:39:57.872Z,43.13
2018-11-05T02:42:26.195Z,34.80
2018-11-05T02:44:54.555Z,34.07
2018-11-05T02:47:22.839Z,38.00
2018-11-05T02:49:51.173Z,31.73
2018-11-05T02:52:19.561Z,38.60
2018-11-05T02:54:47.937Z,40.27
2018-11-05T02:57:16.320Z,39.23
2018-11-05T02:59:44.631Z,33.67
2018-11-05T03:02:12.959Z,36.43
2018-11-05T03:04:41.312Z,34.77
2018-11-05T03:07:09.673Z,33.77
2018-11-05T03:09:38.025Z,34.20
2018-11-05T03:12:06.746Z,41.67
2018-11-05T03:14:35.052Z,34.40
2018-11-05T03:17:03.384Z,36.80
2018-11-05T03:19:31.675Z,37.07
2018-11-05T03:22:00.050Z,38.17
2018-11-05T03:24:28.354Z,38.50
2018-11-05T03:26:56.658Z,33.97
2018-11-05T03:29:25.035Z,38.30
2018-11-05T03:31:53.402Z,34.73
2018-11-05T03:34:21.756Z,35.13
2018-11-05T03:36:50.103Z,42.17
2018-11-05T03:39:18.384Z,36.53
2018-11-05T03:41:46.706Z,37.63
2018-11-05T03:44:15.055Z,41.40
2018-11-05T03:46:43.400Z,40.93
2018-11-05T03:49:11.723Z,36.17
2018-11-05T03:51:40.086Z,40.40
2018-11-05T03:54:08.724Z,36.13
2018-11-05T03:56:37.091Z,35.67
2018-11-05T03:59:05.434Z,39.40
2018-11-05T04:01:33.748Z,34.10
2018-11-05T04:04:02.094Z,39.03
2018-11-05T04:06:30.436Z,34.77
2018-11-05T04:08:58.805Z,38.00
2018-11-05T04:11:27.203Z,38.17
2018-11-05T04:13:55.523Z,36.83
2018-11-05T04:16:23.922Z,34.70
2018-11-05T04:18:52.215Z,37.10
2018-11-05T04:21:20.524Z,35.37
2018-11-05T04:23:48.825Z,38.77
2018-11-05T04:26:17.195Z,38.73
2018-11-05T04:28:45.545Z,41.13
2018-11-05T04:31:13.958Z,39.07
2018-11-05T04:33:42.373Z,38.60
2018-11-05T04:36:10.750Z,39.37
2018-11-05T04:38:39.148Z,38.30
2018-11-05T04:41:07.453Z,34.53
2018-11-05T04:43:35.742Z,36.77
2018-11-05T04:46:04.100Z,32.37
2018-11-05T04:48:32.505Z,36.10
2018-11-05T04:51:00.830Z,40.17
2018-11-05T04:53:29.150Z,34.07
2018-11-05T04:55:57.459Z,37.13
2018-11-05T04:58:25.808Z,34.77
2018-11-05T05:00:54.129Z,40.33
2018-11-05T05:03:22.556Z,42.10
2018-11-05T05:05:50.796Z,39.87
2018-11-05T05:08:19.125Z,36.97
2018-11-05T05:10:47.466Z,43.00
2018-11-05T05:13:15.751Z,40.23
2018-11-05T05:15:44.159Z,32.10
2018-11-05T05:18:12.448Z,37.67
2018-11-05T05:20:40.770Z,35.43
2018-11-05T05:23:09.175Z,37.40
2018-11-05T05:25:37.486Z,36.90
2018-11-05T05:28:06.646Z,40.87
2018-11-05T05:30:35.027Z,40.60
2018-11-05T05:33:03.444Z,37.27
2018-11-05T05:35:31.719Z,36.60
2018-11-05T05:38:00.002Z,38.37
2018-11-05T05:40:28.417Z,34.13
2018-11-05T05:42:56.748Z,45.67
2018-11-05T05:45:25.116Z,33.70
2018-11-05T05:47:53.518Z,38.30
2018-11-05T05:50:21.841Z,38.40
2018-11-05T05:52:50.296Z,44.00
2018-11-05T05:55:18.657Z,39.57
2018-11-05T05:57:47.019Z,39.70
2018-11-05T06:00:16.458Z,40.17
2018-11-05T06:02:44.823Z,36.27
2018-11-05T06:05:14.033Z,34.30
2018-11-05T06:07:42.807Z,35.40
2018-11-05T06:10:12.444Z,36.87
2018-11-05T06:12:40.955Z,36.70
2018-11-05T06:15:12.323Z,32.70
2018-11-05T06:17:40.684Z,37.90
2018-11-05T06:20:11.298Z,34.93
2018-11-05T06:22:39.646Z,35.80
2018-11-05T06:25:08.205Z,35.03
2018-11-05T06:27:36.943Z,33.87
2018-11-05T06:30:09.992Z,35.37
2018-11-05T06:32:38.859Z,36.17
2018-11-05T06:35:07.674Z,36.87
2018-11-05T06:37:36.095Z,40.47
2018-11-05T06:40:04.454Z,38.60
2018-11-05T06:42:32.851Z,44.80
2018-11-05T06:45:01.333Z,45.13
2018-11-05T06:47:29.790Z,41.00
2018-11-05T06:49:58.249Z,36.87
2018-11-05T06:52:26.751Z,35.67
2018-11-05T06:54:55.085Z,36.77
2018-11-05T06:57:23.466Z,35.87
2018-11-05T06:59:51.817Z,34.40
2018-11-05T07:02:20.113Z,39.90
2018-11-05T07:04:48.519Z,39.67
2018-11-05T07:07:16.867Z,37.20
2018-11-05T07:09:45.229Z,32.97
2018-11-05T07:12:13.677Z,33.83
2018-11-05T07:14:42.112Z,32.67
2018-11-05T07:17:10.447Z,34.10
2018-11-05T07:19:38.830Z,39.10
2018-11-05T07:22:07.205Z,37.07
2018-11-05T07:24:35.591Z,40.93
2018-11-05T07:27:03.957Z,35.60
2018-11-05T07:29:32.301Z,29.23
2018-11-05T07:32:00.781Z,32.47
2018-11-05T07:34:29.244Z,34.23
2018-11-05T07:36:57.537Z,32.07
2018-11-05T07:39:25.921Z,36.37
2018-11-05T07:41:54.306Z,33.00
2018-11-05T07:44:22.744Z,33.17
2018-11-05T07:46:51.053Z,39.07
2018-11-05T07:49:19.420Z,34.07
2018-11-05T07:51:47.779Z,31.97
2018-11-05T07:54:16.242Z,29.03
2018-11-05T07:56:44.734Z,31.77
2018-11-05T07:59:13.118Z,35.57
2018-11-05T08:01:41.502Z,33.80
2018-11-05T08:04:09.915Z,31.97
2018-11-05T08:06:38.440Z,35.70
2018-11-05T08:09:08.718Z,34.03
2018-11-05T08:11:37.165Z,33.80
2018-11-05T08:14:05.802Z,34.53
2018-11-05T08:16:34.158Z,35.10
2018-11-05T08:19:02.526Z,41.03
2018-11-05T08:21:30.879Z,40.17
2018-11-05T08:23:59.195Z,33.03
2018-11-05T08:26:27.649Z,36.67
2018-11-05T08:28:56.144Z,34.67
2018-11-05T08:31:24.514Z,35.50
2018-11-05T08:33:52.945Z,33.80
2018-11-05T08:36:21.276Z,39.33
2018-11-05T08:38:49.653Z,37.13
2018-11-05T08:41:17.975Z,34.73
2018-11-05T08:43:46.541Z,36.00
2018-11-05T08:46:14.918Z,35.90
2018-11-05T08:48:43.378Z,45.10
2018-11-05T08:51:12.018Z,36.20
2018-11-05T08:53:40.272Z,41.63
2018-11-05T08:56:08.612Z,40.60
2018-11-05T08:58:36.961Z,36.77
2018-11-05T09:01:10.587Z,47.30
2018-11-05T09:03:38.911Z,43.80
2018-11-05T09:06:07.595Z,42.10
2018-11-05T09:08:35.990Z,43.10
2018-11-05T09:11:04.773Z,44.43
2018-11-05T09:13:32.677Z,40.23
2018-11-05T09:16:01.057Z,42.30
2018-11-05T09:18:29.568Z,44.87
2018-11-05T09:20:58.036Z,42.80
2018-11-05T09:23:26.357Z,42.73
2018-11-05T09:25:54.705Z,42.73
2018-11-05T09:28:23.065Z,46.50
2018-11-05T09:30:51.422Z,39.00
2018-11-05T09:33:20.788Z,41.17
2018-11-05T09:35:49.613Z,45.73
2018-11-05T09:38:18.000Z,39.83
2018-11-05T09:40:46.404Z,37.67
2018-11-05T09:43:15.358Z,41.03
2018-11-05T09:45:43.759Z,37.33
2018-11-05T09:48:12.149Z,38.53
2018-11-05T09:50:40.560Z,38.07
2018-11-05T09:53:08.950Z,34.07
2018-11-05T09:55:37.746Z,37.10
2018-11-05T09:58:07.211Z,34.20
2018-11-05T10:00:35.599Z,32.90
2018-11-05T10:03:09.746Z,34.93
2018-11-05T10:05:37.979Z,36.40
2018-11-05T10:08:06.269Z,36.73
2018-11-05T10:10:34.665Z,35.20
2018-11-05T10:13:03.111Z,37.03
2018-11-05T10:15:33.824Z,38.23
2018-11-05T10:18:02.352Z,39.10
2018-11-05T10:20:30.702Z,40.33
2018-11-05T10:22:59.113Z,40.30
2018-11-05T10:25:30.044Z,38.17
2018-11-05T10:28:04.796Z,39.73
2018-11-05T10:30:33.233Z,39.17
2018-11-05T10:33:01.658Z,40.67
2018-11-05T10:35:35.302Z,36.43
2018-11-05T10:38:03.682Z,40.97
2018-11-05T10:40:32.267Z,41.33
2018-11-05T10:43:00.761Z,37.77
2018-11-05T10:45:29.131Z,36.90
2018-11-05T10:47:57.550Z,40.37
2018-11-05T10:50:26.257Z,41.27
2018-11-05T10:52:54.565Z,49.93
2018-11-05T10:55:22.939Z,51.93
2018-11-05T10:57:51.300Z,42.87
2018-11-05T11:00:25.897Z,48.17
2018-11-05T11:02:59.723Z,46.13
2018-11-05T11:05:29.043Z,44.47
2018-11-05T11:07:58.262Z,36.93
2018-11-05T11:10:27.583Z,47.67
2018-11-05T11:12:57.982Z,45.10
2018-11-05T11:15:26.347Z,46.80
2018-11-05T11:17:55.093Z,42.73
2018-11-05T11:20:23.489Z,43.80
2018-11-05T11:22:51.827Z,42.43
2018-11-05T11:25:20.246Z,36.90
2018-11-05T11:27:48.823Z,35.57
2018-11-05T11:30:17.453Z,35.50
2018-11-05T11:32:46.661Z,38.10
2018-11-05T11:35:15.042Z,40.10
2018-11-05T11:37:43.455Z,36.33
2018-11-05T11:40:14.096Z,35.10
2018-11-05T11:42:43.331Z,39.10
2018-11-05T11:45:12.337Z,36.13
2018-11-05T11:47:40.749Z,34.57
2018-11-05T11:50:11.013Z,40.87
2018-11-05T11:52:39.475Z,32.20
2018-11-05T11:55:09.659Z,33.83
2018-11-05T11:57:38.207Z,33.77
2018-11-05T12:00:09.014Z,40.00
2018-11-05T12:02:37.416Z,31.03
2018-11-05T12:05:07.033Z,34.33
2018-11-05T12:07:35.308Z,39.17
2018-11-05T12:10:03.886Z,35.50
2018-11-05T12:12:32.323Z,37.37
2018-11-05T12:15:00.989Z,36.93
2018-11-05T12:17:29.285Z,38.63
2018-11-05T12:19:57.722Z,38.70
2018-11-05T12:22:26.160Z,38.57
2018-11-05T12:24:54.715Z,38.00
2018-11-05T12:27:23.273Z,41.93
2018-11-05T12:29:51.744Z,35.17
2018-11-05T12:32:20.236Z,31.80
2018-11-05T12:34:48.827Z,42.77
2018-11-05T12:37:17.422Z,34.13
2018-11-05T12:39:45.779Z,33.77
2018-11-05T12:42:14.443Z,36.63
2018-11-05T12:44:42.927Z,38.30
2018-11-05T12:47:11.223Z,37.33
2018-11-05T12:49:39.650Z,39.77
2018-11-05T12:52:08.059Z,36.63
2018-11-05T12:54:36.424Z,36.37
2018-11-05T12:57:04.773Z,38.90
2018-11-05T12:59:33.202Z,36.77
2018-11-05T13:02:01.591Z,35.00
2018-11-05T13:04:29.911Z,39.27
2018-11-05T13:06:58.302Z,36.03
2018-11-05T13:09:26.667Z,36.20
2018-11-05T13:11:55.117Z,38.93
2018-11-05T13:14:23.567Z,34.60
2018-11-05T13:16:52.939Z,36.10
2018-11-05T13:19:21.431Z,36.43
2018-11-05T13:21:49.817Z,38.43
2018-11-05T13:24:18.149Z,36.37
2018-11-05T13:26:47.354Z,32.97
2018-11-05T13:29:15.737Z,34.70
2018-11-05T13:31:44.097Z,33.20
2018-11-05T13:34:12.497Z,37.60
2018-11-05T13:36:40.947Z,31.67
2018-11-05T13:39:09.846Z,36.23
2018-11-05T13:41:38.282Z,36.40
2018-11-05T13:44:07.590Z,31.50
2018-11-05T13:46:36.398Z,33.00
2018-11-05T13:49:04.978Z,46.00
2018-11-05T13:51:32.813Z,37.80
2018-11-05T13:54:01.183Z,35.83
2018-11-05T13:56:29.557Z,34.00
2018-11-05T13:58:58.016Z,33.20
2018-11-05T14:01:26.396Z,37.63
2018-11-05T14:03:54.754Z,36.43
2018-11-05T14:06:23.161Z,36.70
2018-11-05T14:08:51.463Z,39.27
2018-11-05T14:11:19.820Z,39.03
2018-11-05T14:13:48.237Z,42.33
2018-11-05T14:16:16.621Z,37.63
2018-11-05T14:18:45.003Z,39.33
2018-11-05T14:21:15.244Z,35.97
2018-11-05T14:23:43.584Z,35.63
2018-11-05T14:26:12.035Z,38.73
2018-11-05T14:28:40.581Z,35.70
2018-11-05T14:31:08.785Z,38.27
2018-11-05T14:33:38.358Z,32.00
2018-11-05T14:36:06.741Z,33.10
2018-11-05T14:38:35.208Z,32.37
2018-11-05T14:41:03.520Z,33.60
2018-11-05T14:43:31.961Z,30.00
2018-11-05T14:46:00.296Z,28.17
2018-11-05T14:48:28.715Z,35.60
2018-11-05T14:50:57.189Z,30.13
2018-11-05T14:53:25.669Z,32.70
2018-11-05T14:55:54.638Z,27.70
2018-11-05T14:58:23.063Z,26.40
2018-11-05T15:00:51.471Z,26.87
2018-11-05T15:03:19.838Z,36.13
2018-11-05T15:05:48.328Z,35.10
2018-11-05T15:08:16.806Z,31.97
2018-11-05T15:10:45.193Z,33.20
2018-11-05T15:13:13.598Z,40.30
2018-11-05T15:15:41.979Z,31.07
2018-11-05T15:18:10.512Z,32.60
2018-11-05T15:20:38.792Z,33.20
2018-11-05T15:23:07.172Z,45.83
2018-11-05T15:25:35.591Z,39.10
2018-11-05T15:28:03.928Z,41.10
2018-11-05T15:30:32.325Z,35.07
2018-11-05T15:33:00.738Z,35.07
2018-11-05T15:35:29.117Z,32.87
2018-11-05T15:37:57.573Z,33.70
2018-11-05T15:40:25.918Z,31.90
2018-11-05T15:42:54.297Z,34.77
2018-11-05T15:45:23.685Z,36.10
2018-11-05T15:47:52.215Z,35.43
2018-11-05T15:50:21.305Z,35.43
2018-11-05T15:52:50.282Z,38.70
2018-11-05T15:55:18.278Z,33.70
2018-11-05T15:57:46.813Z,33.83
2018-11-05T16:00:17.155Z,35.50
2018-11-05T16:02:47.221Z,36.23
2018-11-05T16:05:15.695Z,39.07
2018-11-05T16:07:46.188Z,36.33
2018-11-05T16:10:14.895Z,35.67
2018-11-05T16:12:43.293Z,37.50
2018-11-05T16:15:13.529Z,38.00
2018-11-05T16:17:41.944Z,37.70
2018-11-05T16:20:12.803Z,42.90
2018-11-05T16:22:41.269Z,42.23
2018-11-05T16:25:09.666Z,37.90
2018-11-05T16:27:38.250Z,37.57
2018-11-05T16:30:10.064Z,35.97
2018-11-05T16:32:38.511Z,44.57
2018-11-05T16:35:07.122Z,48.60
2018-11-05T16:37:35.751Z,43.20
2018-11-05T16:40:04.737Z,43.23
2018-11-05T16:42:32.984Z,41.73
2018-11-05T16:45:01.470Z,42.70
2018-11-05T16:47:29.780Z,38.30
2018-11-05T16:49:58.179Z,43.07
2018-11-05T16:52:26.518Z,43.47
2018-11-05T16:54:54.872Z,41.27
2018-11-05T16:57:23.249Z,36.90
2018-11-05T16:59:51.588Z,36.93
2018-11-05T17:02:20.476Z,39.63
2018-11-05T17:04:48.313Z,35.20
2018-11-05T17:07:16.678Z,37.57
2018-11-05T17:09:45.976Z,42.20
2018-11-05T17:12:14.382Z,38.47
2018-11-05T17:14:43.232Z,44.03
2018-11-05T17:17:11.578Z,39.37
2018-11-05T17:19:40.841Z,44.93
2018-11-05T17:22:09.210Z,51.00
2018-11-05T17:24:37.556Z,52.90
2018-11-05T17:27:06.026Z,45.40
2018-11-05T17:29:34.352Z,47.83
2018-11-05T17:32:02.659Z,45.83
2018-11-05T17:34:30.982Z,39.13
2018-11-05T17:36:59.396Z,47.37
2018-11-05T17:39:27.727Z,37.90
2018-11-05T17:41:56.066Z,41.30
2018-11-05T17:44:24.378Z,48.50
2018-11-05T17:46:52.721Z,38.03
2018-11-05T17:49:21.071Z,44.63
2018-11-05T17:51:50.610Z,50.13
2018-11-05T17:54:18.936Z,48.90
2018-11-05T17:56:47.307Z,55.27
2018-11-05T17:59:15.561Z,51.33
2018-11-05T18:01:43.863Z,53.40
2018-11-05T18:04:12.509Z,57.03
2018-11-05T18:06:41.783Z,48.80
2018-11-05T18:09:10.435Z,70.70
2018-11-05T18:11:38.805Z,59.27
2018-11-05T18:14:07.183Z,60.03
2018-11-05T18:16:35.531Z,62.47
2018-11-05T18:19:03.952Z,56.03
2018-11-05T18:21:32.207Z,57.10
2018-11-05T18:24:00.493Z,50.60
2018-11-05T18:26:28.852Z,55.17
2018-11-05T18:28:57.533Z,53.80
2018-11-05T18:31:25.860Z,62.53
2018-11-05T18:33:54.263Z,50.03
2018-11-05T18:36:22.693Z,55.27
2018-11-05T18:38:52.133Z,61.83
2018-11-05T18:41:20.460Z,84.03
2018-11-05T18:43:49.791Z,73.50
2018-11-05T18:46:18.218Z,72.20
2018-11-05T18:48:47.254Z,77.43
2018-11-05T18:51:15.592Z,63.37
2018-11-05T18:53:43.979Z,62.53
2018-11-05T18:56:12.350Z,58.30
2018-11-05T18:58:41.673Z,54.30
2018-11-05T19:01:11.528Z,58.57
2018-11-05T19:03:40.189Z,56.57
2018-11-05T19:06:08.518Z,49.63
2018-11-05T19:08:36.909Z,47.17
2018-11-05T19:11:05.842Z,47.37
2018-11-05T19:13:34.223Z,46.83
2018-11-05T19:16:02.735Z,53.20
2018-11-05T19:18:31.013Z,54.33
2018-11-05T19:20:59.344Z,56.53
2018-11-05T19:23:27.914Z,60.60
2018-11-05T19:25:56.082Z,51.57
2018-11-05T19:28:24.437Z,48.50
2018-11-05T19:30:52.816Z,52.20
2018-11-05T19:33:21.274Z,51.83
2018-11-05T19:35:49.600Z,55.93
2018-11-05T19:38:17.911Z,51.07
2018-11-05T19:40:46.275Z,68.10
2018-11-05T19:43:14.635Z,58.83
2018-11-05T19:45:42.995Z,59.83
2018-11-05T19:48:11.329Z,52.37
2018-11-05T19:50:39.684Z,54.60
2018-11-05T19:53:08.104Z,52.70
2018-11-05T19:55:36.516Z,47.20
2018-11-05T19:58:04.973Z,55.20
2018-11-05T20:00:33.925Z,51.17
2018-11-05T20:03:03.446Z,47.70
2018-11-05T20:05:31.865Z,43.90
2018-11-05T20:08:00.196Z,51.00
2018-11-05T20:10:28.610Z,47.40
2018-11-05T20:12:57.060Z,47.60
2018-11-05T20:15:25.401Z,51.47
2018-11-05T20:17:54.810Z,53.23
2018-11-05T20:20:24.010Z,49.70
2018-11-05T20:22:52.964Z,58.43
2018-11-05T20:25:21.507Z,57.07
2018-11-05T20:27:49.848Z,51.43
2018-11-05T20:30:26.721Z,59.33
2018-11-05T20:32:56.510Z,55.67
2018-11-05T20:35:24.610Z,61.97
2018-11-05T20:37:52.934Z,58.30
2018-11-05T20:40:22.056Z,61.27
2018-11-05T20:42:51.132Z,52.43
2018-11-05T20:45:20.304Z,42.53
2018-11-05T20:47:48.709Z,45.83
2018-11-05T20:50:17.620Z,50.43
2018-11-05T20:52:45.930Z,43.03
2018-11-05T20:55:15.328Z,40.70
2018-11-05T20:57:43.820Z,45.00
2018-11-05T21:00:13.420Z,49.30
2018-11-05T21:02:42.390Z,60.63
2018-11-05T21:05:10.724Z,58.47
2018-11-05T21:07:40.661Z,51.40
2018-11-05T21:10:10.218Z,55.03
2018-11-05T21:12:39.188Z,51.57
2018-11-05T21:15:12.494Z,56.07
2018-11-05T21:17:41.126Z,65.00
2018-11-05T21:20:09.440Z,86.37
2018-11-05T21:22:37.931Z,66.13
2018-11-05T21:25:06.326Z,59.77
2018-11-05T21:27:34.656Z,55.80
2018-11-05T21:30:03.237Z,56.53
2018-11-05T21:32:31.816Z,56.53
2018-11-05T21:35:00.195Z,58.03
2018-11-05T21:37:28.483Z,61.27
2018-11-05T21:39:56.835Z,72.37
2018-11-05T21:42:25.258Z,58.80
2018-11-05T21:44:53.608Z,51.00
2018-11-05T21:47:21.975Z,57.57
2018-11-05T21:49:50.341Z,66.23
2018-11-05T21:52:18.663Z,84.87
2018-11-05T21:54:46.981Z,77.10
2018-11-05T21:57:15.323Z,66.33
2018-11-05T21:59:43.659Z,69.43
2018-11-05T22:02:11.986Z,58.73
2018-11-05T22:04:40.326Z,50.07
2018-11-05T22:07:08.643Z,44.20
2018-11-05T22:09:36.990Z,48.40
2018-11-05T22:12:05.454Z,48.50
2018-11-05T22:14:33.788Z,61.17
2018-11-05T22:17:02.185Z,77.93
2018-11-05T22:19:30.542Z,125.67
2018-11-05T22:21:58.892Z,80.40
2018-11-05T22:24:27.344Z,57.97
2018-11-05T22:26:55.770Z,73.07
2018-11-05T22:29:24.175Z,63.10
2018-11-05T22:31:52.593Z,56.80
2018-11-05T22:34:21.032Z,51.13
2018-11-05T22:36:49.359Z,52.20
2018-11-05T22:39:17.746Z,57.43
2018-11-05T22:41:46.120Z,60.57
2018-11-05T22:44:14.649Z,46.60
2018-11-05T22:46:43.028Z,52.47
2018-11-05T22:49:11.327Z,57.53
2018-11-05T22:51:39.789Z,53.73
2018-11-05T22:54:08.189Z,62.87
2018-11-05T22:56:36.567Z,61.53
2018-11-05T22:59:04.939Z,57.03
2018-11-05T23:01:38.582Z,55.33
2018-11-05T23:04:06.983Z,55.10
2018-11-05T23:06:35.264Z,63.93
2018-11-05T23:09:05.171Z,47.40
2018-11-05T23:11:33.482Z,45.97
2018-11-05T23:14:01.842Z,43.47
2018-11-05T23:16:30.217Z,43.60
2018-11-05T23:18:58.522Z,45.33
2018-11-05T23:21:26.800Z,41.03
2018-11-05T23:23:55.131Z,42.67
2018-11-05T23:26:23.427Z,36.60
2018-11-05T23:28:51.781Z,47.50
2018-11-05T23:31:20.139Z,40.07
2018-11-05T23:33:48.507Z,52.70
2018-11-05T23:36:16.994Z,52.20
2018-11-05T23:38:45.426Z,43.20
2018-11-05T23:41:13.757Z,55.47
2018-11-05T23:43:42.117Z,52.47
2018-11-05T23:46:10.478Z,73.13
2018-11-05T23:48:38.799Z,68.93
2018-11-05T23:51:07.149Z,63.20
2018-11-05T23:53:35.507Z,63.90
2018-11-05T23:56:04.018Z,58.23
2018-11-05T23:58:32.348Z,54.93
